sensor_id;sensor_type;location;lat;lon;timestamp;pressure;altitude;pressure_sealevel;temperature;humidity
78890;BME280;68279;48.964;14.502;2023-04-27T00:00:26;97191.88;;;0.88;94.88
78890;BME280;68279;48.964;14.502;2023-04-27T00:02:52;97189.84;;;0.65;95.04
78890;BME280;68279;48.964;14.502;2023-04-27T00:05:18;97190.81;;;0.71;95.12
78890;BME280;68279;48.964;14.502;2023-04-27T00:07:44;97193.72;;;0.63;94.22
78890;BME280;68279;48.964;14.502;2023-04-27T00:10:10;97186.91;;;0.48;95.57
78890;BME280;68279;48.964;14.502;2023-04-27T00:12:36;97193.00;;;0.42;95.21
78890;BME280;68279;48.964;14.502;2023-04-27T00:15:04;97190.56;;;0.47;95.46
78890;BME280;68279;48.964;14.502;2023-04-27T00:17:30;97189.34;;;0.43;95.40
78890;BME280;68279;48.964;14.502;2023-04-27T00:19:56;97196.22;;;0.06;95.71
78890;BME280;68279;48.964;14.502;2023-04-27T00:22:22;97199.16;;;-0.15;95.61
78890;BME280;68279;48.964;14.502;2023-04-27T00:24:53;97193.91;;;-0.22;95.47
78890;BME280;68279;48.964;14.502;2023-04-27T00:27:19;97193.13;;;-0.29;95.76
78890;BME280;68279;48.964;14.502;2023-04-27T00:29:44;97193.72;;;-0.27;94.80
78890;BME280;68279;48.964;14.502;2023-04-27T00:32:11;97183.63;;;-0.30;94.02
78890;BME280;68279;48.964;14.502;2023-04-27T00:34:37;97189.31;;;-0.33;94.26
78890;BME280;68279;48.964;14.502;2023-04-27T00:37:03;97191.56;;;-0.43;93.47
78890;BME280;68279;48.964;14.502;2023-04-27T00:39:29;97189.53;;;-0.48;94.02
78890;BME280;68279;48.964;14.502;2023-04-27T00:41:55;97190.94;;;-0.45;93.75
78890;BME280;68279;48.964;14.502;2023-04-27T00:44:25;97186.31;;;-0.43;94.01
78890;BME280;68279;48.964;14.502;2023-04-27T00:46:52;97176.75;;;-0.31;94.32
78890;BME280;68279;48.964;14.502;2023-04-27T00:49:18;97180.19;;;-0.24;94.25
78890;BME280;68279;48.964;14.502;2023-04-27T00:51:46;97182.81;;;-0.31;93.19
78890;BME280;68279;48.964;14.502;2023-04-27T00:54:12;97181.50;;;-0.53;95.69
78890;BME280;68279;48.964;14.502;2023-04-27T00:56:40;97181.50;;;-0.60;95.64
78890;BME280;68279;48.964;14.502;2023-04-27T00:59:06;97182.03;;;-0.44;95.71
78890;BME280;68279;48.964;14.502;2023-04-27T01:01:31;97188.72;;;-0.35;96.31
78890;BME280;68279;48.964;14.502;2023-04-27T01:03:57;97189.09;;;-0.25;95.17
78890;BME280;68279;48.964;14.502;2023-04-27T01:06:23;97187.28;;;-0.31;94.07
78890;BME280;68279;48.964;14.502;2023-04-27T01:08:49;97184.66;;;-0.31;94.11
78890;BME280;68279;48.964;14.502;2023-04-27T01:11:14;97188.13;;;-0.44;95.20
78890;BME280;68279;48.964;14.502;2023-04-27T01:13:40;97182.22;;;-0.33;95.15
78890;BME280;68279;48.964;14.502;2023-04-27T01:16:06;97183.81;;;-0.25;95.59
78890;BME280;68279;48.964;14.502;2023-04-27T01:18:31;97181.19;;;-0.25;96.13
78890;BME280;68279;48.964;14.502;2023-04-27T01:20:58;97185.59;;;-0.19;96.67
78890;BME280;68279;48.964;14.502;2023-04-27T01:23:25;97183.16;;;-0.07;96.09
78890;BME280;68279;48.964;14.502;2023-04-27T01:25:50;97188.94;;;0.08;95.82
78890;BME280;68279;48.964;14.502;2023-04-27T01:28:16;97193.88;;;0.36;94.91
78890;BME280;68279;48.964;14.502;2023-04-27T01:30:41;97189.59;;;0.35;94.88
78890;BME280;68279;48.964;14.502;2023-04-27T01:33:07;97188.41;;;0.38;95.04
78890;BME280;68279;48.964;14.502;2023-04-27T01:35:33;97191.59;;;0.46;94.34
78890;BME280;68279;48.964;14.502;2023-04-27T01:37:59;97199.69;;;0.45;94.22
78890;BME280;68279;48.964;14.502;2023-04-27T01:40:25;97191.41;;;0.41;94.37
78890;BME280;68279;48.964;14.502;2023-04-27T01:42:51;97195.69;;;0.36;93.93
78890;BME280;68279;48.964;14.502;2023-04-27T01:45:17;97199.88;;;0.43;93.71
78890;BME280;68279;48.964;14.502;2023-04-27T01:47:42;97197.66;;;0.47;93.50
78890;BME280;68279;48.964;14.502;2023-04-27T01:50:08;97195.81;;;0.47;93.44
78890;BME280;68279;48.964;14.502;2023-04-27T01:52:34;97205.75;;;0.45;93.80
78890;BME280;68279;48.964;14.502;2023-04-27T01:54:59;97204.41;;;0.36;94.34
78890;BME280;68279;48.964;14.502;2023-04-27T01:57:27;97206.41;;;0.34;94.11
78890;BME280;68279;48.964;14.502;2023-04-27T01:59:52;97209.59;;;0.43;93.79
78890;BME280;68279;48.964;14.502;2023-04-27T02:02:18;97203.13;;;0.45;93.66
78890;BME280;68279;48.964;14.502;2023-04-27T02:04:44;97208.31;;;0.52;93.30
78890;BME280;68279;48.964;14.502;2023-04-27T02:07:10;97212.75;;;0.58;93.25
78890;BME280;68279;48.964;14.502;2023-04-27T02:09:35;97205.50;;;0.53;93.02
78890;BME280;68279;48.964;14.502;2023-04-27T02:12:01;97215.41;;;0.51;93.47
78890;BME280;68279;48.964;14.502;2023-04-27T02:14:26;97214.22;;;0.54;93.32
78890;BME280;68279;48.964;14.502;2023-04-27T02:16:52;97207.53;;;0.51;92.83
78890;BME280;68279;48.964;14.502;2023-04-27T02:19:24;97215.25;;;0.46;93.46
78890;BME280;68279;48.964;14.502;2023-04-27T02:21:49;97224.19;;;0.39;92.98
78890;BME280;68279;48.964;14.502;2023-04-27T02:24:15;97222.81;;;0.36;92.88
78890;BME280;68279;48.964;14.502;2023-04-27T02:26:40;97219.78;;;0.33;92.42
78890;BME280;68279;48.964;14.502;2023-04-27T02:29:06;97215.34;;;0.26;92.21
78890;BME280;68279;48.964;14.502;2023-04-27T02:31:32;97218.81;;;0.27;92.77
78890;BME280;68279;48.964;14.502;2023-04-27T02:33:57;97215.34;;;0.26;92.31
78890;BME280;68279;48.964;14.502;2023-04-27T02:36:23;97212.41;;;0.48;92.68
78890;BME280;68279;48.964;14.502;2023-04-27T02:38:48;97208.50;;;0.57;92.71
78890;BME280;68279;48.964;14.502;2023-04-27T02:41:14;97211.59;;;0.47;93.14
78890;BME280;68279;48.964;14.502;2023-04-27T02:43:40;97208.53;;;0.50;92.68
78890;BME280;68279;48.964;14.502;2023-04-27T02:46:05;97204.31;;;0.49;92.40
78890;BME280;68279;48.964;14.502;2023-04-27T02:48:31;97209.78;;;0.48;92.28
78890;BME280;68279;48.964;14.502;2023-04-27T02:50:56;97207.59;;;0.45;92.45
78890;BME280;68279;48.964;14.502;2023-04-27T02:53:22;97202.66;;;0.55;92.30
78890;BME280;68279;48.964;14.502;2023-04-27T02:55:48;97209.09;;;0.59;92.92
78890;BME280;68279;48.964;14.502;2023-04-27T02:58:14;97205.03;;;0.63;93.03
78890;BME280;68279;48.964;14.502;2023-04-27T03:00:41;97204.03;;;0.64;93.12
78890;BME280;68279;48.964;14.502;2023-04-27T03:03:07;97202.88;;;0.53;93.03
78890;BME280;68279;48.964;14.502;2023-04-27T03:05:33;97206.56;;;0.46;93.40
78890;BME280;68279;48.964;14.502;2023-04-27T03:07:58;97207.38;;;0.46;93.53
78890;BME280;68279;48.964;14.502;2023-04-27T03:10:24;97200.88;;;0.49;92.83
78890;BME280;68279;48.964;14.502;2023-04-27T03:12:49;97204.16;;;0.44;93.46
78890;BME280;68279;48.964;14.502;2023-04-27T03:15:15;97207.75;;;0.50;92.85
78890;BME280;68279;48.964;14.502;2023-04-27T03:17:41;97202.69;;;0.48;92.14
78890;BME280;68279;48.964;14.502;2023-04-27T03:20:07;97210.16;;;0.51;92.48
78890;BME280;68279;48.964;14.502;2023-04-27T03:22:35;97207.31;;;0.53;92.63
78890;BME280;68279;48.964;14.502;2023-04-27T03:25:00;97210.34;;;0.56;92.76
78890;BME280;68279;48.964;14.502;2023-04-27T03:27:26;97211.50;;;0.61;92.74
78890;BME280;68279;48.964;14.502;2023-04-27T03:29:52;97213.78;;;0.57;92.23
78890;BME280;68279;48.964;14.502;2023-04-27T03:32:18;97207.81;;;0.68;92.62
78890;BME280;68279;48.964;14.502;2023-04-27T03:34:44;97204.56;;;0.73;92.48
78890;BME280;68279;48.964;14.502;2023-04-27T03:37:09;97217.16;;;0.71;92.38
78890;BME280;68279;48.964;14.502;2023-04-27T03:39:35;97217.97;;;0.65;92.17
78890;BME280;68279;48.964;14.502;2023-04-27T03:42:00;97219.00;;;0.64;92.47
78890;BME280;68279;48.964;14.502;2023-04-27T03:44:26;97217.19;;;0.64;92.33
78890;BME280;68279;48.964;14.502;2023-04-27T03:46:52;97212.88;;;0.70;92.48
78890;BME280;68279;48.964;14.502;2023-04-27T03:49:18;97213.75;;;0.64;91.80
78890;BME280;68279;48.964;14.502;2023-04-27T03:51:43;97215.81;;;0.55;92.06
78890;BME280;68279;48.964;14.502;2023-04-27T03:54:09;97218.81;;;0.59;92.35
78890;BME280;68279;48.964;14.502;2023-04-27T03:56:34;97222.84;;;0.61;92.64
78890;BME280;68279;48.964;14.502;2023-04-27T03:59:03;97225.53;;;0.54;92.73
78890;BME280;68279;48.964;14.502;2023-04-27T04:01:28;97226.09;;;0.63;91.82
78890;BME280;68279;48.964;14.502;2023-04-27T04:04:01;97233.78;;;0.65;91.74
78890;BME280;68279;48.964;14.502;2023-04-27T04:06:28;97226.38;;;0.48;91.26
78890;BME280;68279;48.964;14.502;2023-04-27T04:08:54;97233.19;;;0.63;91.83
78890;BME280;68279;48.964;14.502;2023-04-27T04:11:20;97225.63;;;0.73;91.31
78890;BME280;68279;48.964;14.502;2023-04-27T04:13:45;97233.34;;;0.68;93.21
78890;BME280;68279;48.964;14.502;2023-04-27T04:16:12;97236.09;;;0.79;91.90
78890;BME280;68279;48.964;14.502;2023-04-27T04:18:38;97233.81;;;0.90;91.43
78890;BME280;68279;48.964;14.502;2023-04-27T04:21:03;97233.00;;;0.89;91.66
78890;BME280;68279;48.964;14.502;2023-04-27T04:23:29;97244.81;;;1.05;92.04
78890;BME280;68279;48.964;14.502;2023-04-27T04:25:55;97234.22;;;1.18;91.98
78890;BME280;68279;48.964;14.502;2023-04-27T04:28:21;97234.22;;;1.18;92.70
78890;BME280;68279;48.964;14.502;2023-04-27T04:30:47;97245.22;;;1.08;92.70
78890;BME280;68279;48.964;14.502;2023-04-27T04:33:13;97248.00;;;1.13;92.31
78890;BME280;68279;48.964;14.502;2023-04-27T04:35:39;97246.44;;;1.31;91.96
78890;BME280;68279;48.964;14.502;2023-04-27T04:38:06;97244.22;;;1.34;91.92
78890;BME280;68279;48.964;14.502;2023-04-27T04:40:33;97248.50;;;1.29;91.77
78890;BME280;68279;48.964;14.502;2023-04-27T04:42:58;97251.41;;;1.46;91.66
78890;BME280;68279;48.964;14.502;2023-04-27T04:45:24;97257.66;;;1.51;92.36
78890;BME280;68279;48.964;14.502;2023-04-27T04:47:52;97252.63;;;1.68;91.28
78890;BME280;68279;48.964;14.502;2023-04-27T04:50:18;97255.09;;;1.81;91.32
78890;BME280;68279;48.964;14.502;2023-04-27T04:52:44;97266.53;;;1.93;91.03
78890;BME280;68279;48.964;14.502;2023-04-27T04:55:10;97260.91;;;2.08;90.30
78890;BME280;68279;48.964;14.502;2023-04-27T04:57:36;97263.03;;;1.99;91.01
78890;BME280;68279;48.964;14.502;2023-04-27T05:00:02;97271.69;;;2.07;91.13
78890;BME280;68279;48.964;14.502;2023-04-27T05:02:35;97265.31;;;2.14;90.48
78890;BME280;68279;48.964;14.502;2023-04-27T05:05:02;97272.94;;;2.22;89.68
78890;BME280;68279;48.964;14.502;2023-04-27T05:07:28;97276.00;;;2.01;89.41
78890;BME280;68279;48.964;14.502;2023-04-27T05:09:53;97271.09;;;2.05;89.98
78890;BME280;68279;48.964;14.502;2023-04-27T05:12:19;97278.41;;;2.03;90.33
78890;BME280;68279;48.964;14.502;2023-04-27T05:14:45;97279.66;;;2.18;90.00
78890;BME280;68279;48.964;14.502;2023-04-27T05:17:12;97283.19;;;2.31;89.51
78890;BME280;68279;48.964;14.502;2023-04-27T05:19:38;97276.72;;;2.26;87.68
78890;BME280;68279;48.964;14.502;2023-04-27T05:22:05;97278.84;;;2.36;87.25
78890;BME280;68279;48.964;14.502;2023-04-27T05:24:33;97287.16;;;2.70;86.95
78890;BME280;68279;48.964;14.502;2023-04-27T05:27:03;97283.53;;;2.52;86.95
78890;BME280;68279;48.964;14.502;2023-04-27T05:29:29;97293.00;;;2.42;86.52
78890;BME280;68279;48.964;14.502;2023-04-27T05:31:55;97290.50;;;2.47;87.13
78890;BME280;68279;48.964;14.502;2023-04-27T05:34:21;97294.47;;;2.38;88.21
78890;BME280;68279;48.964;14.502;2023-04-27T05:36:47;97297.53;;;2.53;86.93
78890;BME280;68279;48.964;14.502;2023-04-27T05:39:12;97296.66;;;2.41;88.48
78890;BME280;68279;48.964;14.502;2023-04-27T05:41:38;97299.53;;;2.88;87.07
78890;BME280;68279;48.964;14.502;2023-04-27T05:44:04;97297.59;;;3.36;84.97
78890;BME280;68279;48.964;14.502;2023-04-27T05:46:31;97298.13;;;3.15;85.60
78890;BME280;68279;48.964;14.502;2023-04-27T05:48:57;97304.94;;;2.93;87.82
78890;BME280;68279;48.964;14.502;2023-04-27T05:51:22;97299.88;;;2.43;87.47
78890;BME280;68279;48.964;14.502;2023-04-27T05:53:48;97301.44;;;2.50;87.95
78890;BME280;68279;48.964;14.502;2023-04-27T05:56:14;97305.16;;;2.61;88.04
78890;BME280;68279;48.964;14.502;2023-04-27T05:58:39;97296.22;;;2.92;87.48
78890;BME280;68279;48.964;14.502;2023-04-27T06:01:06;97298.81;;;3.10;85.53
78890;BME280;68279;48.964;14.502;2023-04-27T06:03:31;97300.44;;;3.35;86.28
78890;BME280;68279;48.964;14.502;2023-04-27T06:05:58;97293.03;;;3.79;84.31
78890;BME280;68279;48.964;14.502;2023-04-27T06:08:25;97292.44;;;4.00;84.07
78890;BME280;68279;48.964;14.502;2023-04-27T06:10:50;97296.50;;;4.54;83.35
78890;BME280;68279;48.964;14.502;2023-04-27T06:13:16;97300.00;;;4.43;81.83
78890;BME280;68279;48.964;14.502;2023-04-27T06:15:42;97294.41;;;4.57;81.77
78890;BME280;68279;48.964;14.502;2023-04-27T06:18:08;97289.13;;;4.57;81.93
78890;BME280;68279;48.964;14.502;2023-04-27T06:20:34;97296.63;;;4.88;80.47
78890;BME280;68279;48.964;14.502;2023-04-27T06:23:01;97300.94;;;4.94;79.88
78890;BME280;68279;48.964;14.502;2023-04-27T06:25:27;97295.00;;;4.87;78.21
78890;BME280;68279;48.964;14.502;2023-04-27T06:27:56;97300.25;;;4.99;78.10
78890;BME280;68279;48.964;14.502;2023-04-27T06:30:23;97292.91;;;4.89;76.84
78890;BME280;68279;48.964;14.502;2023-04-27T06:32:50;97292.13;;;4.89;79.62
78890;BME280;68279;48.964;14.502;2023-04-27T06:35:16;97298.28;;;4.66;77.39
78890;BME280;68279;48.964;14.502;2023-04-27T06:37:41;97301.63;;;3.97;80.63
78890;BME280;68279;48.964;14.502;2023-04-27T06:40:07;97299.31;;;4.36;78.97
78890;BME280;68279;48.964;14.502;2023-04-27T06:42:34;97294.72;;;4.20;77.46
78890;BME280;68279;48.964;14.502;2023-04-27T06:45:10;97298.56;;;3.89;80.78
78890;BME280;68279;48.964;14.502;2023-04-27T06:47:36;97300.59;;;5.19;75.21
78890;BME280;68279;48.964;14.502;2023-04-27T06:50:03;97298.28;;;4.77;79.10
78890;BME280;68279;48.964;14.502;2023-04-27T06:52:30;97301.38;;;4.22;78.65
78890;BME280;68279;48.964;14.502;2023-04-27T06:54:57;97299.44;;;4.98;79.09
78890;BME280;68279;48.964;14.502;2023-04-27T06:57:22;97300.38;;;6.43;74.23
78890;BME280;68279;48.964;14.502;2023-04-27T06:59:50;97301.38;;;5.99;72.42
78890;BME280;68279;48.964;14.502;2023-04-27T07:02:15;97309.16;;;5.21;73.68
78890;BME280;68279;48.964;14.502;2023-04-27T07:04:41;97313.16;;;5.74;72.02
78890;BME280;68279;48.964;14.502;2023-04-27T07:07:07;97309.69;;;4.78;74.94
78890;BME280;68279;48.964;14.502;2023-04-27T07:09:33;97300.47;;;5.26;74.28
78890;BME280;68279;48.964;14.502;2023-04-27T07:11:58;97304.69;;;4.81;73.58
78890;BME280;68279;48.964;14.502;2023-04-27T07:14:25;97306.59;;;4.58;77.73
78890;BME280;68279;48.964;14.502;2023-04-27T07:16:51;97306.00;;;4.67;75.97
78890;BME280;68279;48.964;14.502;2023-04-27T07:19:17;97302.06;;;4.81;75.20
78890;BME280;68279;48.964;14.502;2023-04-27T07:21:43;97309.94;;;5.22;75.69
78890;BME280;68279;48.964;14.502;2023-04-27T07:24:09;97305.13;;;5.35;76.17
78890;BME280;68279;48.964;14.502;2023-04-27T07:26:34;97305.00;;;4.97;75.10
78890;BME280;68279;48.964;14.502;2023-04-27T07:29:01;97300.00;;;5.46;73.44
78890;BME280;68279;48.964;14.502;2023-04-27T07:31:27;97311.28;;;5.07;69.09
78890;BME280;68279;48.964;14.502;2023-04-27T07:33:53;97311.97;;;5.31;70.12
78890;BME280;68279;48.964;14.502;2023-04-27T07:36:19;97312.94;;;5.42;67.97
78890;BME280;68279;48.964;14.502;2023-04-27T07:38:45;97309.41;;;5.87;69.47
78890;BME280;68279;48.964;14.502;2023-04-27T07:41:10;97311.50;;;5.68;68.31
78890;BME280;68279;48.964;14.502;2023-04-27T07:43:36;97315.59;;;5.76;70.07
78890;BME280;68279;48.964;14.502;2023-04-27T07:46:02;97306.56;;;6.49;68.82
78890;BME280;68279;48.964;14.502;2023-04-27T07:48:27;97323.94;;;7.05;66.04
78890;BME280;68279;48.964;14.502;2023-04-27T07:50:53;97329.34;;;6.89;66.92
78890;BME280;68279;48.964;14.502;2023-04-27T07:53:19;97321.50;;;8.27;64.71
78890;BME280;68279;48.964;14.502;2023-04-27T07:55:45;97322.28;;;8.70;61.78
78890;BME280;68279;48.964;14.502;2023-04-27T07:58:11;97320.91;;;8.62;59.06
78890;BME280;68279;48.964;14.502;2023-04-27T08:00:37;97330.41;;;7.36;62.90
78890;BME280;68279;48.964;14.502;2023-04-27T08:03:03;97334.63;;;7.64;63.01
78890;BME280;68279;48.964;14.502;2023-04-27T08:05:28;97331.47;;;8.42;62.91
78890;BME280;68279;48.964;14.502;2023-04-27T08:07:54;97339.81;;;8.18;63.83
78890;BME280;68279;48.964;14.502;2023-04-27T08:10:20;97342.06;;;7.62;64.67
78890;BME280;68279;48.964;14.502;2023-04-27T08:12:46;97338.03;;;8.76;62.30
78890;BME280;68279;48.964;14.502;2023-04-27T08:15:14;97344.34;;;7.49;63.10
78890;BME280;68279;48.964;14.502;2023-04-27T08:17:40;97336.59;;;8.54;60.68
78890;BME280;68279;48.964;14.502;2023-04-27T08:20:07;97341.69;;;9.38;55.58
78890;BME280;68279;48.964;14.502;2023-04-27T08:22:39;97328.38;;;9.84;54.21
78890;BME280;68279;48.964;14.502;2023-04-27T08:25:06;97340.84;;;9.27;58.89
78890;BME280;68279;48.964;14.502;2023-04-27T08:27:35;97332.53;;;9.08;59.35
78890;BME280;68279;48.964;14.502;2023-04-27T08:30:01;97333.94;;;9.98;57.37
78890;BME280;68279;48.964;14.502;2023-04-27T08:32:29;97321.41;;;10.34;52.69
78890;BME280;68279;48.964;14.502;2023-04-27T08:34:55;97320.56;;;10.43;56.07
78890;BME280;68279;48.964;14.502;2023-04-27T08:37:21;97338.78;;;9.65;56.39
78890;BME280;68279;48.964;14.502;2023-04-27T08:39:47;97330.06;;;7.92;62.16
78890;BME280;68279;48.964;14.502;2023-04-27T08:42:13;97336.53;;;7.69;61.80
78890;BME280;68279;48.964;14.502;2023-04-27T08:44:40;97342.44;;;9.23;58.55
78890;BME280;68279;48.964;14.502;2023-04-27T08:47:06;97342.25;;;9.65;56.53
78890;BME280;68279;48.964;14.502;2023-04-27T08:49:33;97345.66;;;9.20;61.19
78890;BME280;68279;48.964;14.502;2023-04-27T08:51:59;97343.06;;;10.02;60.03
78890;BME280;68279;48.964;14.502;2023-04-27T08:54:25;97347.56;;;9.40;60.37
78890;BME280;68279;48.964;14.502;2023-04-27T08:56:51;97352.69;;;11.03;54.14
78890;BME280;68279;48.964;14.502;2023-04-27T08:59:17;97341.91;;;10.59;56.27
78890;BME280;68279;48.964;14.502;2023-04-27T09:01:44;97348.69;;;11.94;46.37
78890;BME280;68279;48.964;14.502;2023-04-27T09:04:10;97353.72;;;11.12;47.60
78890;BME280;68279;48.964;14.502;2023-04-27T09:06:36;97342.25;;;9.91;47.84
78890;BME280;68279;48.964;14.502;2023-04-27T09:09:02;97340.97;;;10.99;45.71
78890;BME280;68279;48.964;14.502;2023-04-27T09:11:30;97341.34;;;10.72;50.98
78890;BME280;68279;48.964;14.502;2023-04-27T09:13:58;97342.09;;;10.88;53.69
78890;BME280;68279;48.964;14.502;2023-04-27T09:16:25;97347.25;;;11.68;47.42
78890;BME280;68279;48.964;14.502;2023-04-27T09:18:54;97346.50;;;9.72;50.09
78890;BME280;68279;48.964;14.502;2023-04-27T09:21:24;97346.09;;;12.42;49.93
78890;BME280;68279;48.964;14.502;2023-04-27T09:23:50;97344.59;;;13.64;49.00
78890;BME280;68279;48.964;14.502;2023-04-27T09:26:26;97345.97;;;13.80;46.28
78890;BME280;68279;48.964;14.502;2023-04-27T09:28:54;97342.00;;;12.73;49.20
78890;BME280;68279;48.964;14.502;2023-04-27T09:31:30;97341.41;;;14.73;44.15
78890;BME280;68279;48.964;14.502;2023-04-27T09:33:56;97336.59;;;13.21;44.35
78890;BME280;68279;48.964;14.502;2023-04-27T09:36:22;97334.31;;;12.67;43.65
78890;BME280;68279;48.964;14.502;2023-04-27T09:38:48;97331.63;;;12.14;43.13
78890;BME280;68279;48.964;14.502;2023-04-27T09:41:14;97341.59;;;12.08;43.04
78890;BME280;68279;48.964;14.502;2023-04-27T09:43:42;97332.00;;;12.02;44.28
78890;BME280;68279;48.964;14.502;2023-04-27T09:46:11;97338.59;;;12.15;41.50
78890;BME280;68279;48.964;14.502;2023-04-27T09:48:38;97328.31;;;13.18;42.39
78890;BME280;68279;48.964;14.502;2023-04-27T09:51:04;97333.13;;;12.25;40.15
78890;BME280;68279;48.964;14.502;2023-04-27T09:53:36;97345.53;;;11.43;42.88
78890;BME280;68279;48.964;14.502;2023-04-27T10:01:46;97327.06;;;10.92;41.47
78890;BME280;68279;48.964;14.502;2023-04-27T10:04:38;97313.25;;;10.69;43.10
78890;BME280;68279;48.964;14.502;2023-04-27T10:07:12;97322.19;;;11.04;41.74
78890;BME280;68279;48.964;14.502;2023-04-27T10:09:46;97313.66;;;12.86;40.65
78890;BME280;68279;48.964;14.502;2023-04-27T10:12:21;97307.56;;;13.23;43.54
78890;BME280;68279;48.964;14.502;2023-04-27T10:14:55;97304.41;;;13.16;40.86
78890;BME280;68279;48.964;14.502;2023-04-27T10:17:24;97303.19;;;13.09;39.19
78890;BME280;68279;48.964;14.502;2023-04-27T10:22:23;97317.31;;;11.95;34.72
78890;BME280;68279;48.964;14.502;2023-04-27T10:24:50;97308.88;;;12.83;37.66
78890;BME280;68279;48.964;14.502;2023-04-27T10:27:18;97312.38;;;11.73;40.15
78890;BME280;68279;48.964;14.502;2023-04-27T10:29:46;97311.06;;;12.57;41.84
78890;BME280;68279;48.964;14.502;2023-04-27T10:32:18;97308.50;;;12.47;39.45
78890;BME280;68279;48.964;14.502;2023-04-27T10:34:45;97298.69;;;12.37;36.88
78890;BME280;68279;48.964;14.502;2023-04-27T10:37:13;97296.25;;;12.84;36.01
78890;BME280;68279;48.964;14.502;2023-04-27T10:39:42;97308.09;;;13.44;36.84
78890;BME280;68279;48.964;14.502;2023-04-27T10:42:08;97302.50;;;12.98;36.96
78890;BME280;68279;48.964;14.502;2023-04-27T10:44:35;97297.53;;;12.43;36.70
78890;BME280;68279;48.964;14.502;2023-04-27T10:47:16;97294.28;;;13.32;41.95
78890;BME280;68279;48.964;14.502;2023-04-27T10:49:46;97292.63;;;15.39;38.24
78890;BME280;68279;48.964;14.502;2023-04-27T10:52:12;97293.06;;;15.91;39.10
78890;BME280;68279;48.964;14.502;2023-04-27T10:54:37;97284.91;;;13.48;34.31
78890;BME280;68279;48.964;14.502;2023-04-27T10:57:06;97288.13;;;12.89;35.20
78890;BME280;68279;48.964;14.502;2023-04-27T10:59:33;97284.84;;;14.32;32.36
78890;BME280;68279;48.964;14.502;2023-04-27T11:01:59;97288.38;;;12.92;36.36
78890;BME280;68279;48.964;14.502;2023-04-27T11:04:37;97267.38;;;12.94;36.21
78890;BME280;68279;48.964;14.502;2023-04-27T11:07:05;97275.31;;;13.04;36.81
78890;BME280;68279;48.964;14.502;2023-04-27T11:09:34;97279.31;;;13.96;32.87
78890;BME280;68279;48.964;14.502;2023-04-27T11:12:01;97280.25;;;13.54;35.54
78890;BME280;68279;48.964;14.502;2023-04-27T11:14:28;97281.56;;;13.56;37.52
78890;BME280;68279;48.964;14.502;2023-04-27T11:16:53;97289.91;;;11.69;39.09
78890;BME280;68279;48.964;14.502;2023-04-27T11:19:19;97277.50;;;13.92;39.53
78890;BME280;68279;48.964;14.502;2023-04-27T11:21:45;97279.94;;;13.74;38.11
78890;BME280;68279;48.964;14.502;2023-04-27T11:24:11;97278.78;;;15.32;39.81
78890;BME280;68279;48.964;14.502;2023-04-27T11:26:36;97275.34;;;15.40;35.67
78890;BME280;68279;48.964;14.502;2023-04-27T11:29:09;97272.97;;;16.05;35.04
78890;BME280;68279;48.964;14.502;2023-04-27T11:34:05;97273.53;;;12.04;42.09
78890;BME280;68279;48.964;14.502;2023-04-27T11:36:31;97282.72;;;11.25;42.32
78890;BME280;68279;48.964;14.502;2023-04-27T11:38:57;97285.56;;;12.79;38.11
78890;BME280;68279;48.964;14.502;2023-04-27T11:41:34;97285.97;;;13.10;35.92
78890;BME280;68279;48.964;14.502;2023-04-27T11:44:04;97284.75;;;13.58;37.73
78890;BME280;68279;48.964;14.502;2023-04-27T11:46:32;97290.69;;;15.17;32.68
78890;BME280;68279;48.964;14.502;2023-04-27T11:49:05;97290.94;;;15.88;34.68
78890;BME280;68279;48.964;14.502;2023-04-27T11:51:31;97287.13;;;15.89;33.15
78890;BME280;68279;48.964;14.502;2023-04-27T11:54:03;97282.53;;;15.08;36.32
78890;BME280;68279;48.964;14.502;2023-04-27T11:56:36;97280.09;;;14.70;35.06
78890;BME280;68279;48.964;14.502;2023-04-27T11:59:03;97273.78;;;14.34;34.63
78890;BME280;68279;48.964;14.502;2023-04-27T12:01:31;97278.50;;;16.00;35.57
78890;BME280;68279;48.964;14.502;2023-04-27T12:03:57;97276.47;;;14.89;29.46
78890;BME280;68279;48.964;14.502;2023-04-27T12:06:24;97275.22;;;16.52;29.26
78890;BME280;68279;48.964;14.502;2023-04-27T12:08:50;97273.13;;;13.63;34.09
78890;BME280;68279;48.964;14.502;2023-04-27T12:11:17;97268.63;;;14.51;32.33
78890;BME280;68279;48.964;14.502;2023-04-27T12:13:42;97270.69;;;14.27;34.36
78890;BME280;68279;48.964;14.502;2023-04-27T12:16:08;97276.56;;;15.34;31.66
78890;BME280;68279;48.964;14.502;2023-04-27T12:18:33;97272.53;;;14.12;33.19
78890;BME280;68279;48.964;14.502;2023-04-27T12:20:59;97275.88;;;14.23;36.32
78890;BME280;68279;48.964;14.502;2023-04-27T12:23:25;97281.19;;;15.19;33.57
78890;BME280;68279;48.964;14.502;2023-04-27T12:25:50;97279.63;;;15.77;29.22
78890;BME280;68279;48.964;14.502;2023-04-27T12:28:16;97271.16;;;14.97;34.66
78890;BME280;68279;48.964;14.502;2023-04-27T12:30:44;97280.19;;;15.65;30.52
78890;BME280;68279;48.964;14.502;2023-04-27T12:33:10;97280.34;;;14.96;34.67
78890;BME280;68279;48.964;14.502;2023-04-27T12:35:36;97272.91;;;18.40;32.08
78890;BME280;68279;48.964;14.502;2023-04-27T12:38:02;97286.41;;;17.24;29.47
78890;BME280;68279;48.964;14.502;2023-04-27T12:40:28;97271.78;;;16.60;28.27
78890;BME280;68279;48.964;14.502;2023-04-27T12:42:54;97266.34;;;15.89;28.92
78890;BME280;68279;48.964;14.502;2023-04-27T12:45:19;97265.56;;;13.65;36.40
78890;BME280;68279;48.964;14.502;2023-04-27T12:47:45;97265.25;;;14.13;34.23
78890;BME280;68279;48.964;14.502;2023-04-27T12:50:12;97274.50;;;12.85;36.25
78890;BME280;68279;48.964;14.502;2023-04-27T12:52:38;97274.66;;;11.98;37.48
78890;BME280;68279;48.964;14.502;2023-04-27T12:55:04;97276.59;;;13.07;35.77
78890;BME280;68279;48.964;14.502;2023-04-27T12:57:49;97273.16;;;12.64;35.66
78890;BME280;68279;48.964;14.502;2023-04-27T13:00:45;97273.31;;;12.25;39.36
78890;BME280;68279;48.964;14.502;2023-04-27T13:03:11;97267.63;;;13.87;36.34